Flight Track Log - Related Links

Times and Time Zones

All times are in EDT time to prevent confusion due to time zone crossing. See the FDX1151 flight status page for this flight to view local times or setup timezone preferences in your user account.

Time Position Orientation Groundspeed Altitude Reporting Facility
EDT Latitude Longitude Course Direction KTS MPH feet Rate Location/Type
Fri 04:45:51 AM 32.9817 -97.3167 360° North 179 206 800  Level FlightAware ADS-B
Fri 04:46:11 AM 32.9650 -97.3137 171° South 168 193 1,900 2,364 Climbing FlightAware ADS-B
Fri 04:46:24 AM 32.9546 -97.3134 179° South 191 220 2,100 1,143 Climbing FlightAware ADS-B
Fri 04:46:32 AM 32.9473 -97.3134 180° South 204 235 2,300 1,500 Climbing FlightAware ADS-B
Fri 04:46:44 AM 32.9355 -97.3145 184° South 215 247 2,600 1,800 Climbing FlightAware ADS-B
Fri 04:46:52 AM 32.9283 -97.3177 200° South 223 257 2,900 2,100 Climbing FlightAware ADS-B
Fri 04:47:04 AM 32.9171 -97.3280 218° Southwest 240 276 3,300 2,100 Climbing FlightAware ADS-B
Fri 04:47:12 AM 32.9118 -97.3366 234° Southwest 250 288 3,600 3,000 Climbing FlightAware ADS-B
Fri 04:47:24 AM 32.9055 -97.3510 242° Southwest 246 283 4,300 3,643 Climbing FlightAware ADS-B
Fri 04:47:40 AM 32.9011 -97.3707 255° West 245 282 5,300 3,568 Climbing FlightAware ADS-B
Fri 04:48:01 AM 32.8982 -97.3992 263° West 250 288 6,500 3,366 Climbing FlightAware ADS-B
Fri 04:48:21 AM 32.8960 -97.4284 265° West 254 292 7,600 3,450 Climbing FlightAware ADS-B
Fri 04:48:41 AM 32.8941 -97.4561 265° West 250 288 8,800 3,366 Climbing FlightAware ADS-B
Fri 04:49:02 AM 32.8918 -97.4834 264° West 251 289 9,900 2,038 Climbing FlightAware ADS-B
Fri 04:49:34 AM 32.8873 -97.5319 264° West 292 336 10,600 1,130 Climbing FlightAware ADS-B
Fri 04:50:11 AM 32.8812 -97.5947 263° West 341 392 11,200 2,000 Climbing FlightAware ADS-B
Fri 04:50:43 AM 32.8750 -97.6526 263° West 344 396 12,900 3,100 Climbing FlightAware ADS-B
Fri 04:51:11 AM 32.8756 -97.7102 271° West 356 410 14,300 2,963 Climbing FlightAware ADS-B
Fri 04:52:04 AM 32.8937 -97.8112 282° West 365 420 16,900 3,000 Climbing FlightAware ADS-B
Fri 04:52:41 AM 32.9064 -97.8838 282° West 362 417 18,800 2,866 Climbing FlightAware ADS-B
Fri 04:53:11 AM 32.9170 -97.9430 282° West 366 421 20,100 2,514 Climbing FlightAware ADS-B
Fri 04:53:55 AM 32.9330 -98.0350 282° West 375 432 21,900 2,259 Climbing FlightAware ADS-B
Fri 04:54:36 AM 32.9470 -98.1140 282° West 381 438 23,300 1,977 Climbing FlightAware ADS-B
Fri 04:55:23 AM 32.9640 -98.2150 281° West 392 451 24,800 1,955 Climbing FlightAware ADS-B
Fri 04:56:05 AM 32.9790 -98.3040 281° West 399 459 26,200 1,923 Climbing FlightAware ADS-B
Fri 04:56:41 AM 32.9920 -98.3820 281° West 402 463 27,300 1,676 Climbing FlightAware ADS-B
Fri 04:57:13 AM 33.0040 -98.4530 281° West 411 473 28,100 1,478 Climbing FlightAware ADS-B
Fri 04:57:50 AM 33.0170 -98.5330 281° West 417 480 29,000 1,671 Climbing FlightAware ADS-B
Fri 04:58:32 AM 33.0330 -98.6280 281° West 418 481 30,300 1,870 Climbing FlightAware ADS-B
Fri 04:59:07 AM 33.0470 -98.7090 282° West 415 478 31,400 1,421 Climbing FlightAware ADS-B
Fri 04:59:48 AM 33.0620 -98.7990 281° West 423 487 32,100 1,000 Climbing FlightAware ADS-B
Fri 05:00:19 AM 33.0740 -98.8740 281° West 430 495 32,600 986 Climbing FlightAware ADS-B
Fri 05:01:01 AM 33.0890 -98.9670 281° West 435 501 33,300 1,026 Climbing FlightAware ADS-B
Fri 05:01:35 AM 33.1030 -99.0500 281° West 438 504 33,900 656 Climbing FlightAware ADS-B
Fri 05:02:05 AM 33.1140 -99.1160 281° West 442 509 34,000 81 Climbing FlightAware ADS-B
Fri 05:02:49 AM 33.1320 -99.2290 281° West 440 506 34,000  Level FlightAware ADS-B
Fri 05:03:16 AM 33.1420 -99.2930 281° West 438 504 34,000  Level FlightAware ADS-B
Fri 05:03:55 AM 33.1550 -99.3770 280° West 439 505 34,000  Level FlightAware ADS-B
Fri 05:04:41 AM 33.1740 -99.4960 281° West 441 507 34,000  Level FlightAware ADS-B
Fri 05:05:17 AM 33.1880 -99.5830 281° West 444 511 34,000  Level FlightAware ADS-B
Fri 05:06:10 AM 33.2030 -99.6740 281° West 445 512 34,000  Level FlightAware ADS-B
Fri 05:07:05 AM 33.2280 -99.8410 280° West 444 511 34,000  Level FlightAware ADS-B
Fri 05:07:38 AM 33.2410 -99.9200 281° West 445 512 34,000  Level FlightAware ADS-B
Fri 05:08:22 AM 33.2580 -100.0270 281° West 447 514 34,000  Level FlightAware ADS-B
Fri 05:08:58 AM 33.2710 -100.1100 281° West 449 517 34,000  Level FlightAware ADS-B
Fri 05:09:32 AM 33.2830 -100.1930 280° West 449 517 34,000  Level FlightAware ADS-B
Fri 05:10:13 AM 33.2990 -100.2950 281° West 449 517 34,000  Level FlightAware ADS-B
Fri 05:10:52 AM 33.3130 -100.3900 280° West 449 517 34,000  Level FlightAware ADS-B
Fri 05:11:51 AM 33.3350 -100.5350 280° West 449 517 34,000  Level FlightAware ADS-B
Fri 05:12:21 AM 33.3460 -100.6080 280° West 449 517 34,000  Level FlightAware ADS-B
Fri 05:12:53 AM 33.3580 -100.6890 280° West 449 517 34,000  Level FlightAware ADS-B
Fri 05:13:35 AM 33.3730 -100.7890 280° West 450 518 34,000  Level FlightAware ADS-B
Fri 05:14:14 AM 33.3870 -100.8850 280° West 450 518 34,000  Level FlightAware ADS-B
Fri 05:14:55 AM 33.4020 -100.9880 280° West 451 519 34,000  Level FlightAware ADS-B
Fri 05:15:31 AM 33.4150 -101.0770 280° West 452 520 34,000  Level FlightAware ADS-B
Fri 05:16:15 AM 33.4310 -101.1850 280° West 451 519 34,000  Level FlightAware ADS-B
Fri 05:16:47 AM 33.4420 -101.2620 280° West 451 519 34,000  Level FlightAware ADS-B
Fri 05:17:22 AM 33.4540 -101.3480 280° West 451 519 34,000  Level FlightAware ADS-B
Fri 05:18:08 AM 33.4700 -101.4610 280° West 453 521 34,000  Level FlightAware ADS-B
Fri 05:18:51 AM 33.4860 -101.5750 280° West 456 525 34,000  Level FlightAware ADS-B
Fri 05:19:26 AM 33.4980 -101.6600 280° West 457 526 34,000  Level FlightAware ADS-B
Fri 05:20:17 AM 33.5160 -101.7830 280° West 460 529 34,000 67 Level FlightAware ADS-B
Fri 05:20:55 AM 33.5300 -101.8860 279° West 459 528 34,100 68 Climbing FlightAware ADS-B
Fri 05:21:45 AM 33.5470 -102.0090 279° West 461 531 34,100  Level FlightAware ADS-B
Fri 05:22:22 AM 33.5590 -102.1020 279° West 458 527 34,100 -78 Level FlightAware ADS-B
Fri 05:23:02 AM 33.5730 -102.2020 280° West 459 528 34,000 -82 Descending FlightAware ADS-B
Fri 05:23:35 AM 33.5850 -102.2850 280° West 460 529 34,000  Level FlightAware ADS-B
Fri 05:24:08 AM 33.5950 -102.3660 278° West 460 529 34,000  Level FlightAware ADS-B
Fri 05:24:43 AM 33.6070 -102.4540 279° West 459 528 34,000  Level FlightAware ADS-B
Fri 05:25:30 AM 33.6230 -102.5750 279° West 458 527 34,000  Level FlightAware ADS-B
Fri 05:26:13 AM 33.6380 -102.6850 279° West 458 527 34,000  Level FlightAware ADS-B
Fri 05:26:53 AM 33.6510 -102.7830 279° West 459 528 34,000  Level FlightAware ADS-B
Fri 05:27:21 AM 33.6600 -102.8540 279° West 458 527 34,000  Level FlightAware ADS-B
Fri 05:27:57 AM 33.6710 -102.9440 278° West 457 526 34,000  Level FlightAware ADS-B
Fri 05:28:32 AM 33.6830 -103.0340 279° West 457 526 34,000  Level FlightAware ADS-B
Fri 05:29:21 AM 33.6980 -103.1520 279° West 457 526 34,000  Level FlightAware ADS-B
Fri 05:30:01 AM 33.7110 -103.2550 279° West 457 526 34,000  Level FlightAware ADS-B
Fri 05:30:44 AM 33.7250 -103.3620 279° West 455 524 34,000  Level FlightAware ADS-B
Fri 05:31:17 AM 33.7350 -103.4420 279° West 455 524 34,000  Level FlightAware ADS-B
Fri 05:31:57 AM 33.7480 -103.5450 279° West 454 522 34,000  Level FlightAware ADS-B
Fri 05:32:41 AM 33.7620 -103.6550 279° West 455 524 34,000  Level FlightAware ADS-B
Fri 05:33:20 AM 33.7740 -103.7530 278° West 458 527 34,000  Level FlightAware ADS-B
Fri 05:34:10 AM 33.7890 -103.8790 278° West 460 529 34,000 70 Level FlightAware ADS-B
Fri 05:34:46 AM 33.8000 -103.9700 278° West 460 529 34,100  Climbing FlightAware ADS-B
Fri 05:35:35 AM 33.8150 -104.0940 278° West 462 532 34,000 -67 Descending FlightAware ADS-B
Fri 05:36:15 AM 33.8270 -104.1960 278° West 462 532 34,000 92 Level FlightAware ADS-B
Fri 05:36:40 AM 33.8340 -104.2570 278° West 463 533 34,100 92 Climbing FlightAware ADS-B
Fri 05:37:20 AM 33.8440 -104.3440 278° West 463 533 34,100  Level FlightAware ADS-B
Fri 05:37:57 AM 33.8540 -104.4240 279° West 463 533 34,100  Level FlightAware ADS-B
Fri 05:38:33 AM 33.8630 -104.5030 278° West 463 533 34,100  Level FlightAware ADS-B
Fri 05:39:33 AM 33.8780 -104.6330 278° West 463 533 34,100 -59 Level FlightAware ADS-B
Fri 05:40:15 AM 33.8980 -104.8080 278° West 458 527 34,000 -80 Descending FlightAware ADS-B
Fri 05:40:48 AM 33.9070 -104.8890 278° West 458 527 34,000  Level FlightAware ADS-B
Fri 05:41:21 AM 33.9170 -104.9720 278° West 457 526 34,000  Level FlightAware ADS-B
Fri 05:42:13 AM 33.9310 -105.1010 277° West 456 525 34,000  Level FlightAware ADS-B
Fri 05:42:49 AM 33.9420 -105.1970 278° West 455 524 34,000  Level FlightAware ADS-B
Fri 05:43:37 AM 33.9550 -105.3150 278° West 457 526 34,000  Level FlightAware ADS-B
Fri 05:44:16 AM 33.9660 -105.4140 278° West 458 527 34,000  Level FlightAware ADS-B
Fri 05:44:57 AM 33.9770 -105.5180 277° West 459 528 34,000  Level FlightAware ADS-B
Fri 05:45:36 AM 33.9880 -105.6160 278° West 459 528 34,000  Level FlightAware ADS-B
Fri 05:46:16 AM 33.9980 -105.7180 277° West 460 529 34,000  Level FlightAware ADS-B
Fri 05:46:52 AM 34.0080 -105.8100 277° West 459 528 34,000  Level FlightAware ADS-B
Fri 05:47:38 AM 34.0190 -105.9270 277° West 459 528 34,000  Level FlightAware ADS-B
Fri 05:48:16 AM 34.0230 -106.0240 273° West 458 527 34,000  Level FlightAware ADS-B
Fri 05:48:58 AM 34.0290 -106.1280 274° West 459 528 34,000  Level FlightAware ADS-B
Fri 05:49:35 AM 34.0320 -106.2090 273° West 459 528 34,000  Level FlightAware ADS-B
Fri 05:50:11 AM 34.0360 -106.2870 274° West 459 528 34,000  Level FlightAware ADS-B
Fri 05:51:12 AM 34.0410 -106.4200 273° West 459 528 34,000  Level FlightAware ADS-B
Fri 05:52:03 AM 34.0460 -106.5310 273° West 459 528 34,000  Level FlightAware ADS-B
Fri 05:52:39 AM 34.0500 -106.6090 274° West 459 528 34,000  Level FlightAware ADS-B
Fri 05:53:27 AM 34.0540 -106.7130 273° West 459 528 34,000  Level FlightAware ADS-B
Fri 05:53:51 AM 34.0560 -106.7660 273° West 459 528 34,000  Level FlightAware ADS-B
Fri 05:54:27 AM 34.0600 -106.8440 274° West 459 528 34,000  Level FlightAware ADS-B
Fri 05:55:16 AM 34.0640 -106.9510 273° West 459 528 34,000  Level FlightAware ADS-B
Fri 05:56:04 AM 34.0690 -107.0550 273° West 459 528 34,000  Level FlightAware ADS-B
Fri 05:57:04 AM 34.0750 -107.1860 273° West 459 528 34,000  Level FlightAware ADS-B
Fri 05:57:40 AM 34.0780 -107.2640 273° West 459 528 34,000  Level FlightAware ADS-B
Fri 05:58:29 AM 34.0830 -107.3710 273° West 459 528 34,000  Level FlightAware ADS-B
Fri 05:58:53 AM 34.0850 -107.4230 273° West 459 528 34,000  Level FlightAware ADS-B
Fri 05:59:34 AM 34.0936 -107.7200 273° West 464 534 34,000  Level Albuquerque Center
Fri 06:00:34 AM 34.0997 -107.8775 273° West 468 539 34,000  Level Albuquerque Center
Fri 06:01:34 AM 34.1044 -108.0325 272° West 465 535 34,000  Level Albuquerque Center
Fri 06:02:34 AM 34.1103 -108.1872 273° West 461 531 34,000  Level Albuquerque Center
Fri 06:03:35 AM 34.1144 -108.3403 272° West 459 528 34,000  Level Albuquerque Center
Fri 06:04:35 AM 34.1192 -108.5056 272° West 456 525 34,000  Level Albuquerque Center
Fri 06:05:35 AM 34.1242 -108.6567 272° West 454 522 34,000  Level Albuquerque Center
Fri 06:06:35 AM 34.1294 -108.8292 272° West 457 526 34,000  Level Albuquerque Center
Fri 06:07:35 AM 34.1319 -108.9800 271° West 462 532 34,000  Level Albuquerque Center
Fri 06:12:36 AM 34.1490 -109.7490 271° West 471 542 34,000  Level FlightAware ADS-B
Fri 06:13:23 AM 34.1510 -109.9000 271° West 470 541 34,000  Level FlightAware ADS-B
Fri 06:13:55 AM 34.1530 -109.9870 272° West 470 541 34,000  Level FlightAware ADS-B
Fri 06:14:29 AM 34.1540 -110.0730 271° West 471 542 34,000  Level FlightAware ADS-B
Fri 06:15:15 AM 34.1560 -110.1970 271° West 471 542 34,000  Level FlightAware ADS-B
Fri 06:15:55 AM 34.1580 -110.3020 271° West 473 544 34,000  Level FlightAware ADS-B
Fri 06:16:27 AM 34.1590 -110.3860 271° West 476 548 34,000  Level FlightAware ADS-B
Fri 06:17:05 AM 34.1600 -110.4880 271° West 477 549 34,000  Level FlightAware ADS-B
Fri 06:17:29 AM 34.1610 -110.5510 271° West 478 550 34,000 91 Level FlightAware ADS-B
Fri 06:18:11 AM 34.1620 -110.6640 271° West 480 552 34,100 68 Climbing FlightAware ADS-B
Fri 06:18:57 AM 34.1630 -110.7870 271° West 480 552 34,100 -70 Level FlightAware ADS-B
Fri 06:19:37 AM 34.1640 -110.8940 271° West 479 551 34,000 -71 Descending FlightAware ADS-B
Fri 06:20:21 AM 34.1650 -111.0150 271° West 481 554 34,000  Level FlightAware ADS-B
Fri 06:20:53 AM 34.1660 -111.0980 271° West 480 552 34,000  Level FlightAware ADS-B
Fri 06:22:05 AM 34.1635 -110.8010 90° East 480 552 34,000  Level FlightAware ADS-B
Fri 06:23:13 AM 34.1690 -111.4720 271° West 481 554 34,000  Level FlightAware ADS-B
Fri 06:23:50 AM 34.1690 -111.5710 270° West 481 554 34,000  Level FlightAware ADS-B
Fri 06:24:52 AM 34.1690 -111.7219 270° West 482 555 34,000  Level FlightAware ADS-B
Fri 06:25:22 AM 34.1692 -111.8188 270° West 482 555 34,000  Level FlightAware ADS-B
Fri 06:25:55 AM 34.1693 -111.9076 270° West 483 556 34,000  Level FlightAware ADS-B
Fri 06:26:45 AM 34.1690 -112.0390 270° West 484 557 34,000  Level FlightAware ADS-B
Fri 06:27:33 AM 34.1690 -112.1530 270° West 485 558 34,000  Level FlightAware ADS-B
Fri 06:28:33 AM 34.1688 -112.3339 270° West 485 558 34,000  Level FlightAware ADS-B
Fri 06:29:20 AM 34.1685 -112.4614 270° West 487 560 34,000  Level FlightAware ADS-B
Fri 06:29:55 AM 34.1681 -112.5565 270° West 487 560 34,000  Level FlightAware ADS-B
Fri 06:30:27 AM 34.1680 -112.6430 270° West 488 562 34,000  Level FlightAware ADS-B
Fri 06:31:05 AM 34.1670 -112.7470 269° West 489 563 34,000  Level FlightAware ADS-B
Fri 06:31:50 AM 34.1660 -112.8670 269° West 489 563 34,000  Level FlightAware ADS-B
Fri 06:32:23 AM 34.1660 -112.9600 270° West 489 563 34,000  Level FlightAware ADS-B
Fri 06:33:03 AM 34.1650 -113.0690 269° West 489 563 34,000  Level FlightAware ADS-B
Fri 06:33:42 AM 34.1640 -113.1730 269° West 489 563 34,000  Level FlightAware ADS-B
Fri 06:34:15 AM 34.1630 -113.2680 269° West 489 563 34,000  Level FlightAware ADS-B
Fri 06:34:55 AM 34.1620 -113.3740 269° West 489 563 34,000  Level FlightAware ADS-B
Fri 06:35:32 AM 34.1610 -113.4720 269° West 489 563 34,000  Level FlightAware ADS-B
Fri 06:36:12 AM 34.1600 -113.5820 269° West 491 565 34,000  Level FlightAware ADS-B
Fri 06:36:51 AM 34.1580 -113.6910 269° West 493 567 34,000  Level FlightAware ADS-B
Fri 06:37:17 AM 34.1570 -113.7630 269° West 494 568 34,000 91 Level FlightAware ADS-B
Fri 06:37:57 AM 34.1550 -113.8710 269° West 495 570 34,100 76 Climbing FlightAware ADS-B
Fri 06:38:36 AM 34.1540 -113.9810 269° West 496 571 34,100 -54 Level FlightAware ADS-B
Fri 06:39:48 AM 34.1500 -114.1810 269° West 497 572 34,000 -56 Descending FlightAware ADS-B
Fri 06:40:23 AM 34.1490 -114.2770 269° West 496 571 34,000  Level FlightAware ADS-B
Fri 06:41:07 AM 34.1470 -114.3990 269° West 496 571 34,000  Level FlightAware ADS-B
Fri 06:42:02 AM 34.1430 -114.5480 268° West 496 571 34,000  Level FlightAware ADS-B
Fri 06:42:53 AM 34.1410 -114.6860 269° West 495 570 34,000  Level FlightAware ADS-B
Fri 06:43:37 AM 34.1380 -114.8080 268° West 495 570 34,000  Level FlightAware ADS-B
Fri 06:44:22 AM 34.1350 -114.9340 268° West 495 570 34,000  Level FlightAware ADS-B
Fri 06:45:08 AM 34.1320 -115.0590 268° West 496 571 34,000  Level FlightAware ADS-B
Fri 06:45:52 AM 34.1290 -115.1830 268° West 495 570 34,000  Level FlightAware ADS-B
Fri 06:46:17 AM 34.1270 -115.2520 268° West 495 570 34,000  Level FlightAware ADS-B
Fri 06:47:07 AM 34.1230 -115.3900 268° West 496 571 34,000  Level FlightAware ADS-B
Fri 06:47:38 AM 34.1210 -115.4760 268° West 496 571 34,000  Level FlightAware ADS-B
Fri 06:48:57 AM 34.1143 -115.7110 268° West 498 573 34,000  Level FlightAware ADS-B
Fri 06:49:48 AM 34.1020 -115.8380 263° West 498 573 34,000 -279 Level FlightAware ADS-B
Fri 06:50:23 AM 34.0890 -115.9280 260° West 495 570 33,600 -1,379 Descending FlightAware ADS-B
Fri 06:51:15 AM 34.0690 -116.0660 260° West 488 562 32,000 -1,950 Descending FlightAware ADS-B
Fri 06:51:43 AM 34.0580 -116.1450 260° West 478 550 31,000 -2,096 Descending FlightAware ADS-B
Fri 06:52:38 AM 34.0389 -116.2755 260° West 467 537 29,100 -1,931 Descending FlightAware ADS-B
Fri 06:53:10 AM 34.0240 -116.3750 260° West 464 534 28,200 -1,846 Descending FlightAware ADS-B
Fri 06:53:43 AM 34.0117 -116.4560 260° West 458 527 27,100 -2,122 Descending FlightAware ADS-B
Fri 06:54:32 AM 34.0013 -116.5709 264° West 445 512 25,300 -2,167 Descending FlightAware ADS-B
Fri 06:55:31 AM 33.9871 -116.7210 264° West 434 499 23,200 -2,110 Descending FlightAware ADS-B
Fri 06:56:03 AM 33.9803 -116.7974 264° West 429 494 22,100 -2,328 Descending FlightAware ADS-B
Fri 06:56:38 AM 33.9733 -116.8828 264° West 428 493 20,600 -2,418 Descending FlightAware ADS-B
Fri 06:57:10 AM 33.9667 -116.9611 264° West 427 491 19,400 -2,156 Descending FlightAware ADS-B
Fri 06:57:42 AM 33.9611 -117.0315 265° West 422 486 18,300 -2,190 Descending FlightAware ADS-B
Fri 06:58:13 AM 33.9552 -117.1037 264° West 418 481 17,100 -1,869 Descending FlightAware ADS-B
Fri 06:58:43 AM 33.9493 -117.1725 264° West 406 467 16,400 -1,300 Descending FlightAware ADS-B
Fri 06:59:13 AM 33.9436 -117.2385 264° West 387 445 15,800 -971 Descending FlightAware ADS-B
Fri 06:59:51 AM 33.9375 -117.3106 264° West 382 440 15,300 -783 Descending FlightAware ADS-B
Fri 07:00:22 AM 33.9312 -117.3866 264° West 379 436 14,900 -762 Descending FlightAware ADS-B
Fri 07:00:54 AM 33.9251 -117.4509 264° West 370 426 14,500 -794 Descending FlightAware ADS-B
Fri 07:01:30 AM 33.9201 -117.5156 265° West 362 417 14,000 -737 Descending FlightAware ADS-B
Fri 07:01:51 AM 33.9229 -117.5594 274° West 358 412 13,800 -724 Descending FlightAware ADS-B
Fri 07:02:28 AM 33.9344 -117.6355 280° West 354 407 13,300 -771 Descending FlightAware ADS-B
Fri 07:03:01 AM 33.9426 -117.6958 279° West 354 407 12,900 -771 Descending FlightAware ADS-B
Fri 07:03:38 AM 33.9521 -117.7717 279° West 353 406 12,400 -771 Descending FlightAware ADS-B
Fri 07:04:11 AM 33.9600 -117.8318 279° West 352 405 12,000 -646 Descending FlightAware ADS-B
Fri 07:04:43 AM 33.9663 -117.8803 279° West 353 406 11,700 -871 Descending FlightAware ADS-B
Fri 07:05:13 AM 33.9698 -117.9073 279° West 345 397 11,100 -873 Descending FlightAware ADS-B
Fri 07:05:38 AM 33.9772 -117.9996 276° West 335 386 10,900 -655 Descending FlightAware ADS-B
Fri 07:06:08 AM 33.9707 -118.0578 262° West 323 372 10,500 -676 Descending FlightAware ADS-B
Fri 07:06:49 AM 33.9657 -118.1272 265° West 315 362 10,100 -652 Descending FlightAware ADS-B
Fri 07:06:54 AM 33.9661 -118.1340 274° West 305 351 10,000 -720 Descending FlightAware ADS-B
Fri 07:07:39 AM 33.9771 -118.2136 279° West 298 343 9,500 -723 Descending FlightAware ADS-B
Fri 07:08:17 AM 33.9853 -118.2731 279° West 289 333 9,000 -825 Descending FlightAware ADS-B
Fri 07:08:59 AM 33.9940 -118.3390 279° West 273 314 8,400 -733 Descending FlightAware ADS-B
Fri 07:09:47 AM 34.0040 -118.4090 280° West 255 293 7,900 -420 Descending FlightAware ADS-B
Fri 07:10:39 AM 34.0112 -118.4779 277° West 257 296 7,700 -1,021 Descending FlightAware ADS-B
Fri 07:11:21 AM 34.0150 -118.5385 274° West 255 293 6,300 -1,645 Descending FlightAware ADS-B
Fri 07:11:41 AM 34.0171 -118.5647 276° West 240 276 6,000 -878 Descending FlightAware ADS-B
Fri 07:12:02 AM 34.0190 -118.5930 275° West 225 259 5,700 -1,067 Descending FlightAware ADS-B
Fri 07:12:26 AM 34.0205 -118.6227 273° West 219 252 5,200 -1,524 Descending FlightAware ADS-B
Fri 07:13:05 AM 33.9960 -118.6530 226° Southwest 205 236 4,100 -1,548 Descending FlightAware ADS-B
Fri 07:13:59 AM 33.9480 -118.6470 174° South 184 212 2,800 -1,237 Descending FlightAware ADS-B
Fri 07:14:42 AM 33.9310 -118.6110 120° Southeast 185 213 2,100 -857 Descending FlightAware ADS-B
Fri 07:15:02 AM 33.9280 -118.5940 102° East 182 209 1,900 -169 Descending FlightAware ADS-B
Fri 07:15:53 AM 33.9240 -118.5400 95° East 166 191 1,900 -237 Level FlightAware ADS-B
Fri 07:16:18 AM 33.9250 -118.5210 86° East 173 199 1,600 -673 Descending FlightAware ADS-B
Fri 07:17:31 AM 33.9316 -118.4611 82° East 143 165 800 -733 Descending FlightAware ADS-B
Fri 07:17:48 AM 33.9330 -118.4469 83° East 139 160 500 -789 Descending FlightAware ADS-B
Fri 07:18:09 AM 33.9346 -118.4318 83° East 136 157 300 -393 Descending FlightAware ADS-B
Fri 07:18:49 AM 33.9380 -118.4040 82° East 138 159 100 -300 Descending FlightAware ADS-B
Fri 07:26:00 AM 33.9333 -118.4000 101° East  Level FlightAware Approximate
Fri 07:27:00 AM 33.9425 -118.4081 101° East  Level Estimated

Login

Don't have an account? Register now (free) for customized features, flight alerts, and more!